createdAt,value
2023-04-01T00:00:05.815Z,0.80
2023-04-01T00:02:33.006Z,0.70
2023-04-01T00:05:00.186Z,0.60
2023-04-01T00:07:30.634Z,1.00
2023-04-01T00:09:58.166Z,0.98
2023-04-01T00:12:26.592Z,0.60
2023-04-01T00:14:53.732Z,1.48
2023-04-01T00:17:21.438Z,1.00
2023-04-01T00:19:48.529Z,1.17
2023-04-01T00:22:16.141Z,1.08
2023-04-01T00:24:43.238Z,0.98
2023-04-01T00:27:11.049Z,0.90
2023-04-01T00:29:38.232Z,1.02
2023-04-01T00:32:05.695Z,0.68
2023-04-01T00:34:32.810Z,1.00
2023-04-01T00:37:00.033Z,0.82
2023-04-01T00:39:29.870Z,0.90
2023-04-01T00:41:57.967Z,0.80
2023-04-01T00:44:34.008Z,0.90
2023-04-01T00:47:01.871Z,1.00
2023-04-01T00:49:34.000Z,0.90
2023-04-01T00:52:04.592Z,0.73
2023-04-01T00:54:32.652Z,0.85
2023-04-01T00:57:11.072Z,0.60
2023-04-01T00:59:45.538Z,0.90
2023-04-01T01:02:14.353Z,0.75
2023-04-01T01:04:41.951Z,0.88
2023-04-01T01:07:11.901Z,0.63
2023-04-01T01:10:02.529Z,0.70
2023-04-01T01:12:48.095Z,0.57
2023-04-01T01:15:30.766Z,0.93
2023-04-01T01:18:16.235Z,1.02
2023-04-01T01:21:12.789Z,1.20
2023-04-01T01:23:48.810Z,0.75
2023-04-01T01:26:34.627Z,0.60
2023-04-01T01:29:27.411Z,0.82
2023-04-01T01:32:09.651Z,0.95
2023-04-01T01:35:00.153Z,0.88
2023-04-01T01:37:30.511Z,0.60
2023-04-01T01:40:03.069Z,0.60
2023-04-01T01:42:33.861Z,0.50
2023-04-01T01:45:02.375Z,0.60
2023-04-01T01:47:31.137Z,0.63
2023-04-01T01:49:59.189Z,0.60
2023-04-01T01:52:29.443Z,1.05
2023-04-01T01:54:58.774Z,0.60
2023-04-01T01:57:37.547Z,0.70
2023-04-01T02:00:15.948Z,0.70
2023-04-01T02:02:45.486Z,0.60
2023-04-01T02:05:26.770Z,0.50
2023-04-01T02:08:02.728Z,0.52
2023-04-01T02:10:33.655Z,0.60
2023-04-01T02:13:07.318Z,0.60
2023-04-01T02:15:39.150Z,0.70
2023-04-01T02:18:06.410Z,0.68
2023-04-01T02:20:34.150Z,0.68
2023-04-01T02:23:02.056Z,0.50
2023-04-01T02:25:32.047Z,1.23
2023-04-01T02:28:01.111Z,0.90
2023-04-01T02:30:30.965Z,0.90
2023-04-01T02:33:00.403Z,0.63
2023-04-01T02:35:27.902Z,0.80
2023-04-01T02:37:56.077Z,0.82
2023-04-01T02:40:23.940Z,0.60
2023-04-01T02:42:51.793Z,1.00
2023-04-01T02:45:19.409Z,0.90
2023-04-01T02:47:46.679Z,0.73
2023-04-01T02:50:13.989Z,0.85
2023-04-01T02:52:41.068Z,1.17
2023-04-01T02:55:08.537Z,0.70
2023-04-01T02:57:35.777Z,0.73
2023-04-01T03:00:03.852Z,0.70
2023-04-01T03:02:31.061Z,0.75
2023-04-01T03:04:58.290Z,0.80
2023-04-01T03:07:25.401Z,0.55
2023-04-01T03:09:52.477Z,0.68
2023-04-01T03:12:19.736Z,0.77
2023-04-01T03:14:47.076Z,1.10
2023-04-01T03:17:14.169Z,1.13
2023-04-01T03:19:41.444Z,0.65
2023-04-01T03:22:11.734Z,0.50
2023-04-01T03:24:38.876Z,0.40
2023-04-01T03:27:06.251Z,0.70
2023-04-01T03:29:33.528Z,0.63
2023-04-01T03:32:00.731Z,0.55
2023-04-01T03:34:27.988Z,0.60
2023-04-01T03:36:55.109Z,0.50
2023-04-01T03:39:23.118Z,0.50
2023-04-01T03:41:50.242Z,0.80
2023-04-01T03:44:17.593Z,0.50
2023-04-01T03:46:44.756Z,0.52
2023-04-01T03:49:14.903Z,0.65
2023-04-01T03:51:44.058Z,0.57
2023-04-01T03:56:39.068Z,0.47
2023-04-01T03:59:08.653Z,0.40
2023-04-01T04:01:36.472Z,0.70
2023-04-01T04:04:04.716Z,0.30
2023-04-01T04:06:32.317Z,0.40
2023-04-01T04:08:59.562Z,0.68
2023-04-01T04:11:26.889Z,0.68
2023-04-01T04:13:55.050Z,0.50
2023-04-01T04:16:23.176Z,0.63
2023-04-01T04:18:52.150Z,0.57
2023-04-01T04:21:19.383Z,0.55
2023-04-01T04:23:46.549Z,0.40
2023-04-01T04:26:15.620Z,0.70
2023-04-01T04:28:42.847Z,0.55
2023-04-01T04:31:10.191Z,0.47
2023-04-01T04:33:37.469Z,0.73
2023-04-01T04:36:05.489Z,0.60
2023-04-01T04:38:32.818Z,0.40
2023-04-01T04:41:00.115Z,0.60
2023-04-01T04:43:27.284Z,0.65
2023-04-01T04:45:54.471Z,0.50
2023-04-01T04:48:21.661Z,0.70
2023-04-01T04:50:50.653Z,0.60
2023-04-01T04:53:20.141Z,0.60
2023-04-01T04:55:51.313Z,0.68
2023-04-01T04:58:19.198Z,0.80
2023-04-01T05:00:46.851Z,0.50
2023-04-01T05:03:14.401Z,0.60
2023-04-01T05:05:48.979Z,0.77
2023-04-01T05:08:16.129Z,0.50
2023-04-01T05:10:43.137Z,0.30
2023-04-01T05:13:10.365Z,0.40
2023-04-01T05:15:38.546Z,0.55
2023-04-01T05:18:05.730Z,0.40
2023-04-01T05:20:32.724Z,0.50
2023-04-01T05:23:00.673Z,0.52
2023-04-01T05:25:27.792Z,0.52
2023-04-01T05:27:55.041Z,1.17
2023-04-01T05:30:22.104Z,0.70
2023-04-01T05:32:49.224Z,0.50
2023-04-01T05:35:16.555Z,0.40
2023-04-01T05:37:43.496Z,0.70
2023-04-01T05:40:11.179Z,0.50
2023-04-01T05:42:38.564Z,0.47
2023-04-01T05:45:06.246Z,0.40
2023-04-01T05:47:33.214Z,0.50
2023-04-01T05:50:00.389Z,0.90
2023-04-01T05:52:27.381Z,0.50
2023-04-01T05:54:54.337Z,0.45
2023-04-01T05:57:22.004Z,0.47
2023-04-01T05:59:49.053Z,0.47
2023-04-01T06:02:18.770Z,0.55
2023-04-01T06:04:46.488Z,0.60
2023-04-01T06:07:16.120Z,0.38
2023-04-01T06:09:44.714Z,0.50
2023-04-01T06:12:26.300Z,0.60
2023-04-01T06:15:11.728Z,0.52
2023-04-01T06:17:50.987Z,1.00
2023-04-01T06:20:48.979Z,0.70
2023-04-01T06:23:46.958Z,0.60
2023-04-01T06:26:38.825Z,0.57
2023-04-01T06:29:23.769Z,0.80
2023-04-01T06:32:28.245Z,1.00
2023-04-01T06:34:58.272Z,0.80
2023-04-01T06:37:46.594Z,0.43
2023-04-01T06:40:53.819Z,0.68
2023-04-01T06:43:26.800Z,0.70
2023-04-01T06:46:04.036Z,0.55
2023-04-01T06:48:50.971Z,0.80
2023-04-01T06:51:32.785Z,0.70
2023-04-01T06:54:31.191Z,0.20
2023-04-01T06:57:06.766Z,0.52
2023-04-01T06:59:36.031Z,0.70
2023-04-01T07:02:13.162Z,0.43
2023-04-01T07:04:51.056Z,0.47
2023-04-01T07:07:43.069Z,0.73
2023-04-01T07:10:21.487Z,0.63
2023-04-01T07:12:52.867Z,0.68
2023-04-01T07:15:21.771Z,0.40
2023-04-01T07:17:54.505Z,0.80
2023-04-01T07:20:27.788Z,0.50
2023-04-01T07:23:01.223Z,0.98
2023-04-01T07:25:45.740Z,0.60
2023-04-01T07:28:17.985Z,0.77
2023-04-01T07:31:09.393Z,1.10
2023-04-01T07:34:05.855Z,0.63
2023-04-01T07:36:35.747Z,0.80
2023-04-01T07:39:20.117Z,0.60
2023-04-01T07:42:00.794Z,0.60
2023-04-01T07:44:51.592Z,0.98
2023-04-01T07:47:52.767Z,0.80
2023-04-01T07:50:43.977Z,0.90
2023-04-01T07:53:29.746Z,0.75
2023-04-01T07:56:17.072Z,0.82
2023-04-01T08:01:19.842Z,0.65
2023-04-01T08:04:05.819Z,0.60
2023-04-01T08:06:38.977Z,0.80
2023-04-01T08:09:29.704Z,1.02
2023-04-01T08:12:10.648Z,1.13
2023-04-01T08:17:36.567Z,1.08
2023-04-01T08:20:27.229Z,1.20
2023-04-01T08:23:22.622Z,0.80
2023-04-01T08:25:53.371Z,1.33
2023-04-01T08:28:33.249Z,0.68
2023-04-01T08:31:10.156Z,0.75
2023-04-01T08:33:38.448Z,0.50
2023-04-01T08:36:13.948Z,0.73
2023-04-01T08:38:53.048Z,1.80
2023-04-01T08:42:14.372Z,2.47
2023-04-01T08:44:53.493Z,2.22
2023-04-01T08:47:35.435Z,4.00
2023-04-01T08:50:07.691Z,4.03
2023-04-01T08:52:35.955Z,6.55
2023-04-01T08:55:15.171Z,7.10
2023-04-01T08:58:03.716Z,5.97
2023-04-01T09:00:36.213Z,6.40
2023-04-01T09:03:21.403Z,4.95
2023-04-01T09:06:21.446Z,3.92
2023-04-01T09:09:03.381Z,3.78
2023-04-01T09:11:33.111Z,4.28
2023-04-01T09:14:05.952Z,4.43
2023-04-01T09:16:47.888Z,3.90
2023-04-01T09:19:39.364Z,4.40
2023-04-01T09:22:27.953Z,5.90
2023-04-01T09:25:00.940Z,4.22
2023-04-01T09:27:54.656Z,3.60
2023-04-01T09:30:57.942Z,3.40
2023-04-01T09:33:33.647Z,4.00
2023-04-01T09:36:32.692Z,3.47
2023-04-01T09:39:39.320Z,4.70
2023-04-01T09:42:36.809Z,3.75
2023-04-01T09:45:31.733Z,2.60
2023-04-01T09:48:15.712Z,2.92
2023-04-01T09:51:01.920Z,2.35
2023-04-01T09:53:34.289Z,2.40
2023-04-01T09:56:25.533Z,2.80
2023-04-01T09:59:18.430Z,2.33
2023-04-01T10:01:54.546Z,2.83
2023-04-01T10:04:49.268Z,3.15
2023-04-01T10:07:50.794Z,2.40
2023-04-01T10:10:55.500Z,3.08
2023-04-01T10:13:43.392Z,2.85
2023-04-01T10:16:50.617Z,3.08
2023-04-01T10:19:24.482Z,3.72
2023-04-01T10:22:26.358Z,2.30
2023-04-01T10:25:43.581Z,2.55
2023-04-01T10:28:37.683Z,2.38
2023-04-01T10:31:04.561Z,2.55
2023-04-01T10:33:46.543Z,2.85
2023-04-01T10:36:36.927Z,2.40
2023-04-01T10:39:31.151Z,2.75
2023-04-01T10:42:25.331Z,3.65
2023-04-01T10:44:52.313Z,2.97
2023-04-01T10:47:37.347Z,3.85
2023-04-01T10:50:13.415Z,3.10
2023-04-01T10:52:58.652Z,2.47
2023-04-01T10:56:02.573Z,3.10
2023-04-01T10:58:37.028Z,3.75
2023-04-01T11:01:21.852Z,2.90
2023-04-01T11:04:23.102Z,2.70
2023-04-01T11:06:58.822Z,3.13
2023-04-01T11:09:54.408Z,2.33
2023-04-01T11:12:43.032Z,2.53
2023-04-01T11:15:22.065Z,3.17
2023-04-01T11:18:01.125Z,3.65
2023-04-01T11:20:50.016Z,3.40
2023-04-01T11:24:03.906Z,3.28
2023-04-01T11:26:57.681Z,2.90
2023-04-01T11:29:27.702Z,2.92
2023-04-01T11:32:19.005Z,2.90
2023-04-01T11:35:06.113Z,2.50
2023-04-01T11:37:55.458Z,3.13
2023-04-01T11:40:36.985Z,2.97
2023-04-01T11:43:32.374Z,3.72
2023-04-01T11:46:22.206Z,3.35
2023-04-01T11:49:12.306Z,3.00
2023-04-01T11:51:57.202Z,3.10
2023-04-01T11:54:50.311Z,2.97
2023-04-01T11:57:20.100Z,3.20
2023-04-01T12:00:08.334Z,3.13
2023-04-01T12:02:53.459Z,3.22
2023-04-01T12:05:20.470Z,2.97
2023-04-01T12:08:14.255Z,2.47
2023-04-01T12:10:45.888Z,2.88
2023-04-01T12:13:28.896Z,3.13
2023-04-01T12:16:01.839Z,3.22
2023-04-01T12:18:53.712Z,2.90
2023-04-01T12:21:42.063Z,3.53
2023-04-01T12:24:11.840Z,2.67
2023-04-01T12:26:48.432Z,3.40
2023-04-01T12:29:59.755Z,2.85
2023-04-01T12:32:45.394Z,3.70
2023-04-01T12:35:27.160Z,2.80
2023-04-01T12:38:31.474Z,3.13
2023-04-01T12:41:13.608Z,2.50
2023-04-01T12:44:07.620Z,2.95
2023-04-01T12:47:13.414Z,3.00
2023-04-01T12:49:49.040Z,3.10
2023-04-01T12:52:30.312Z,3.17
2023-04-01T12:55:35.879Z,2.60
2023-04-01T12:58:08.785Z,2.90
2023-04-01T13:00:57.201Z,2.95
2023-04-01T13:03:46.090Z,2.75
2023-04-01T13:06:50.683Z,2.97
2023-04-01T13:10:08.099Z,2.90
2023-04-01T13:13:12.210Z,2.90
2023-04-01T13:16:08.328Z,2.63
2023-04-01T13:18:37.898Z,2.58
2023-04-01T13:21:22.853Z,2.70
2023-04-01T13:23:59.950Z,2.58
2023-04-01T13:26:26.841Z,2.75
2023-04-01T13:29:12.095Z,3.08
2023-04-01T13:32:11.425Z,2.88
2023-04-01T13:35:07.453Z,2.72
2023-04-01T13:37:37.161Z,2.50
2023-04-01T13:40:49.217Z,2.17
2023-04-01T13:43:28.929Z,2.00
